sensor_id;sensor_type;location;lat;lon;timestamp;P1;durP1;ratioP1;P2;durP2;ratioP2
41881;SDS011;27562;47.524;12.404;2022-10-03T18:04:01;5.13;;;2.80;;
41881;SDS011;27562;47.524;12.404;2022-10-03T18:07:03;5.18;;;2.42;;
41881;SDS011;27562;47.524;12.404;2022-10-03T18:09:45;7.40;;;2.33;;
41881;SDS011;27562;47.524;12.404;2022-10-03T18:14:57;5.18;;;2.70;;
41881;SDS011;27562;47.524;12.404;2022-10-03T18:20:39;5.00;;;2.25;;
41881;SDS011;27562;47.524;12.404;2022-10-03T18:23:09;4.03;;;2.22;;
41881;SDS011;27562;47.524;12.404;2022-10-03T18:25:51;3.60;;;1.98;;
41881;SDS011;27562;47.524;12.404;2022-10-03T18:31:18;3.72;;;2.00;;
41881;SDS011;27562;47.524;12.404;2022-10-03T18:33:49;5.63;;;2.00;;
41881;SDS011;27562;47.524;12.404;2022-10-03T18:36:25;3.85;;;2.10;;
41881;SDS011;27562;47.524;12.404;2022-10-03T18:38:56;4.85;;;2.03;;
41881;SDS011;27562;47.524;12.404;2022-10-03T18:41:25;4.75;;;1.80;;
41881;SDS011;27562;47.524;12.404;2022-10-03T18:43:53;3.00;;;1.65;;
41881;SDS011;27562;47.524;12.404;2022-10-03T18:46:38;4.20;;;2.05;;
41881;SDS011;27562;47.524;12.404;2022-10-03T18:51:52;5.82;;;2.35;;
41881;SDS011;27562;47.524;12.404;2022-10-03T18:58:09;3.45;;;1.70;;
41881;SDS011;27562;47.524;12.404;2022-10-03T19:00:55;6.43;;;2.05;;
41881;SDS011;27562;47.524;12.404;2022-10-03T19:03:27;4.97;;;1.80;;
41881;SDS011;27562;47.524;12.404;2022-10-03T19:06:27;3.75;;;1.77;;
41881;SDS011;27562;47.524;12.404;2022-10-03T19:09:25;4.00;;;1.83;;
41881;SDS011;27562;47.524;12.404;2022-10-03T19:12:19;4.35;;;2.22;;
41881;SDS011;27562;47.524;12.404;2022-10-03T19:15:01;4.45;;;2.20;;
41881;SDS011;27562;47.524;12.404;2022-10-03T19:20:18;4.47;;;2.22;;
41881;SDS011;27562;47.524;12.404;2022-10-03T19:25:29;11.93;;;4.05;;
41881;SDS011;27562;47.524;12.404;2022-10-03T19:28:17;16.48;;;7.18;;
41881;SDS011;27562;47.524;12.404;2022-10-03T19:30:44;13.00;;;6.15;;
41881;SDS011;27562;47.524;12.404;2022-10-03T19:33:20;7.82;;;4.03;;
41881;SDS011;27562;47.524;12.404;2022-10-03T19:35:49;6.00;;;2.58;;
41881;SDS011;27562;47.524;12.404;2022-10-03T19:38:24;3.60;;;2.00;;
41881;SDS011;27562;47.524;12.404;2022-10-03T19:41:05;5.40;;;1.73;;
41881;SDS011;27562;47.524;12.404;2022-10-03T19:43:52;4.70;;;1.90;;
41881;SDS011;27562;47.524;12.404;2022-10-03T19:46:24;5.47;;;2.03;;
41881;SDS011;27562;47.524;12.404;2022-10-03T19:49:21;3.55;;;1.92;;
41881;SDS011;27562;47.524;12.404;2022-10-03T19:51:49;9.23;;;3.22;;
41881;SDS011;27562;47.524;12.404;2022-10-03T19:55:17;9.15;;;3.88;;
41881;SDS011;27562;47.524;12.404;2022-10-03T19:57:24;7.25;;;4.00;;
41881;SDS011;27562;47.524;12.404;2022-10-03T19:59:55;6.30;;;3.03;;
41881;SDS011;27562;47.524;12.404;2022-10-03T20:02:25;7.30;;;3.28;;
41881;SDS011;27562;47.524;12.404;2022-10-03T20:04:53;6.07;;;2.85;;
41881;SDS011;27562;47.524;12.404;2022-10-03T20:13:11;4.75;;;2.63;;
41881;SDS011;27562;47.524;12.404;2022-10-03T20:15:41;5.13;;;2.58;;
41881;SDS011;27562;47.524;12.404;2022-10-03T20:18:11;5.28;;;1.70;;
41881;SDS011;27562;47.524;12.404;2022-10-03T20:20:46;3.78;;;2.03;;
41881;SDS011;27562;47.524;12.404;2022-10-03T20:23:18;3.65;;;2.15;;
41881;SDS011;27562;47.524;12.404;2022-10-03T20:28:43;7.22;;;2.15;;
41881;SDS011;27562;47.524;12.404;2022-10-03T20:31:17;5.05;;;1.80;;
41881;SDS011;27562;47.524;12.404;2022-10-03T20:33:44;4.72;;;2.20;;
41881;SDS011;27562;47.524;12.404;2022-10-03T20:39:10;5.53;;;2.13;;
41881;SDS011;27562;47.524;12.404;2022-10-03T20:44:24;4.38;;;2.50;;
41881;SDS011;27562;47.524;12.404;2022-10-03T20:47:07;4.63;;;2.30;;
41881;SDS011;27562;47.524;12.404;2022-10-03T20:49:43;3.53;;;1.90;;
41881;SDS011;27562;47.524;12.404;2022-10-03T20:52:15;4.32;;;1.92;;
41881;SDS011;27562;47.524;12.404;2022-10-03T20:54:50;4.68;;;1.90;;
41881;SDS011;27562;47.524;12.404;2022-10-03T20:57:40;5.90;;;1.92;;
41881;SDS011;27562;47.524;12.404;2022-10-03T21:00:17;5.35;;;1.58;;
41881;SDS011;27562;47.524;12.404;2022-10-03T21:05:38;3.03;;;1.88;;
41881;SDS011;27562;47.524;12.404;2022-10-03T21:08:21;6.40;;;1.95;;
41881;SDS011;27562;47.524;12.404;2022-10-03T21:11:02;4.50;;;2.05;;
41881;SDS011;27562;47.524;12.404;2022-10-03T21:13:47;5.90;;;1.83;;
41881;SDS011;27562;47.524;12.404;2022-10-03T21:16:21;3.85;;;1.67;;
41881;SDS011;27562;47.524;12.404;2022-10-03T21:18:51;3.03;;;1.53;;
41881;SDS011;27562;47.524;12.404;2022-10-03T21:21:30;4.15;;;1.83;;
41881;SDS011;27562;47.524;12.404;2022-10-03T21:24:25;4.03;;;1.60;;
41881;SDS011;27562;47.524;12.404;2022-10-03T21:27:03;4.10;;;1.92;;
41881;SDS011;27562;47.524;12.404;2022-10-03T21:29:34;3.65;;;1.92;;
41881;SDS011;27562;47.524;12.404;2022-10-03T21:40:46;5.15;;;1.77;;
41881;SDS011;27562;47.524;12.404;2022-10-03T21:43:25;3.65;;;1.90;;
41881;SDS011;27562;47.524;12.404;2022-10-03T21:46:14;4.38;;;2.15;;
41881;SDS011;27562;47.524;12.404;2022-10-03T22:13:39;4.25;;;2.38;;
41881;SDS011;27562;47.524;12.404;2022-10-03T22:16:22;4.18;;;2.45;;
41881;SDS011;27562;47.524;12.404;2022-10-03T22:24:28;4.03;;;2.25;;
41881;SDS011;27562;47.524;12.404;2022-10-03T22:27:06;3.50;;;2.20;;
41881;SDS011;27562;47.524;12.404;2022-10-03T22:37:53;4.78;;;2.38;;
41881;SDS011;27562;47.524;12.404;2022-10-03T22:40:20;5.82;;;3.33;;
41881;SDS011;27562;47.524;12.404;2022-10-03T22:42:48;4.32;;;2.40;;
41881;SDS011;27562;47.524;12.404;2022-10-03T22:45:18;5.35;;;2.50;;
41881;SDS011;27562;47.524;12.404;2022-10-03T22:47:49;5.65;;;2.75;;
41881;SDS011;27562;47.524;12.404;2022-10-03T22:50:18;8.35;;;2.47;;
41881;SDS011;27562;47.524;12.404;2022-10-03T22:52:48;4.75;;;3.05;;
41881;SDS011;27562;47.524;12.404;2022-10-03T22:55:17;4.38;;;2.35;;
41881;SDS011;27562;47.524;12.404;2022-10-03T22:57:46;5.30;;;2.80;;
41881;SDS011;27562;47.524;12.404;2022-10-03T23:00:16;4.53;;;2.90;;
41881;SDS011;27562;47.524;12.404;2022-10-03T23:13:51;4.57;;;2.30;;
41881;SDS011;27562;47.524;12.404;2022-10-03T23:16:42;3.70;;;2.65;;
41881;SDS011;27562;47.524;12.404;2022-10-03T23:21:44;4.18;;;2.80;;
41881;SDS011;27562;47.524;12.404;2022-10-03T23:24:19;3.58;;;2.33;;
41881;SDS011;27562;47.524;12.404;2022-10-03T23:27:29;4.32;;;2.63;;
41881;SDS011;27562;47.524;12.404;2022-10-03T23:35:13;6.55;;;3.30;;
41881;SDS011;27562;47.524;12.404;2022-10-03T23:37:55;5.68;;;3.33;;
41881;SDS011;27562;47.524;12.404;2022-10-03T23:43:04;5.90;;;3.47;;
41881;SDS011;27562;47.524;12.404;2022-10-03T23:45:47;6.07;;;3.13;;
41881;SDS011;27562;47.524;12.404;2022-10-03T23:48:18;5.43;;;3.17;;
41881;SDS011;27562;47.524;12.404;2022-10-03T23:53:24;6.57;;;3.20;;
41881;SDS011;27562;47.524;12.404;2022-10-03T23:56:03;6.63;;;3.97;;
41881;SDS011;27562;47.524;12.404;2022-10-03T23:58:32;7.47;;;2.75;;
